Time;durP1;ratioP1;P1;durP2;ratioP2;P2;SDS_P1;SDS_P2;PMS_P1;PMS_P2;Temp;Humidity;BMP_temperature;BMP_pressure;BME280_temperature;BME280_humidity;BME280_pressure;Samples;Min_cycle;Max_cycle;Signal;HPM_P1;HPM_P2
2021/12/22 00:02:20;;;;;;;83.90;43.30;;;;;;;-4.36;100.00;102473.53;5054855;28;20037;-50
2021/12/22 00:04:48;;;;;;;79.03;42.97;;;;;;;-4.06;100.00;102534.28;5073361;28;20036;-49
2021/12/22 00:07:14;;;;;;;82.22;43.05;;;;;;;-4.03;100.00;102539.56;5055492;28;20032;-48
2021/12/22 00:09:41;;;;;;;79.15;43.42;;;;;;;-4.36;100.00;102475.19;5072944;28;20032;-50
2021/12/22 00:12:08;;;;;;;74.32;43.17;;;;;;;-4.42;100.00;102457.75;5072793;28;20032;-53
2021/12/22 00:14:33;;;;;;;72.07;40.40;;;;;;;-4.12;100.00;102497.09;5072708;28;20037;-52
2021/12/22 00:16:58;;;;;;;74.93;43.50;;;;;;;-4.05;100.00;102522.31;5072783;28;20036;-49
2021/12/22 00:19:24;;;;;;;82.57;42.30;;;;;;;-4.00;100.00;102526.88;5054371;28;20032;-54
2021/12/22 00:21:49;;;;;;;80.05;43.72;;;;;;;-4.44;100.00;102423.41;5072496;28;20163;-52
2021/12/22 00:24:15;;;;;;;74.68;42.63;;;;;;;-4.72;100.00;102377.34;5054978;28;20127;-50
2021/12/22 00:26:40;;;;;;;80.07;42.20;;;;;;;-4.00;100.00;102501.16;5072787;28;20047;-51
2021/12/22 00:29:07;;;;;;;72.07;41.80;;;;;;;-4.05;100.00;102489.75;5038075;28;20045;-50
2021/12/22 00:31:40;;;;;;;71.28;40.72;;;;;;;-4.38;100.00;102441.72;5054938;28;20487;-49
2021/12/22 00:34:14;;;;;;;81.30;42.13;;;;;;;-4.41;100.00;102435.53;5072517;28;20028;-51
2021/12/22 00:36:39;;;;;;;81.25;42.40;;;;;;;-4.19;100.00;102488.16;5056090;28;20032;-54
2021/12/22 00:39:05;;;;;;;88.95;43.22;;;;;;;-4.42;100.00;102444.91;5072488;28;20040;-50
2021/12/22 00:41:30;;;;;;;77.70;42.28;;;;;;;-4.05;100.00;102512.91;5037851;28;20047;-50
2021/12/22 00:43:55;;;;;;;77.55;43.60;;;;;;;-4.23;100.00;102485.34;5072413;28;20086;-51
2021/12/22 00:46:21;;;;;;;77.57;40.67;;;;;;;-4.09;100.00;102505.84;5037951;28;20040;-50
2021/12/22 00:48:46;;;;;;;69.97;39.92;;;;;;;-4.23;100.00;102501.63;5072398;28;20546;-49
2021/12/22 00:51:11;;;;;;;74.35;41.40;;;;;;;-4.53;100.00;102435.75;5072213;28;20131;-48
2021/12/22 00:53:37;;;;;;;80.10;43.58;;;;;;;-4.13;100.00;102521.91;5072390;28;20040;-53
2021/12/22 00:56:04;;;;;;;74.88;41.15;;;;;;;-4.46;100.00;102460.97;5037839;28;20059;-48
2021/12/22 00:58:29;;;;;;;74.00;40.95;;;;;;;-4.15;100.00;102520.06;5072230;28;20043;-49
2021/12/22 01:00:54;;;;;;;79.20;42.22;;;;;;;-4.18;100.00;102523.34;5072162;28;20037;-53
2021/12/22 01:03:20;;;;;;;71.65;39.78;;;;;;;-4.19;100.00;102518.13;5071917;28;20123;-53
2021/12/22 01:05:46;;;;;;;71.63;40.13;;;;;;;-4.62;100.00;102468.66;5072236;28;20043;-53
2021/12/22 01:08:12;;;;;;;85.82;40.90;;;;;;;-4.63;100.00;102456.59;5071964;28;20045;-51
2021/12/22 01:10:37;;;;;;;74.15;40.78;;;;;;;-4.30;100.00;102512.41;5072035;28;20060;-51
2021/12/22 01:13:05;;;;;;;75.80;40.15;;;;;;;-4.23;100.00;102529.06;5072225;28;20024;-52
2021/12/22 01:15:31;;;;;;;77.13;39.90;;;;;;;-4.66;100.00;102466.72;5058311;28;20038;-51
2021/12/22 01:18:06;;;;;;;72.85;39.35;;;;;;;-4.27;100.00;102529.69;5058157;28;20033;-52
2021/12/22 01:23:18;;;;;;;73.35;40.35;;;;;;;-4.33;100.00;102529.34;5060813;28;20150;-52
2021/12/22 01:25:44;;;;;;;80.70;39.65;;;;;;;-4.34;100.00;102532.72;5058620;28;20422;-48
2021/12/22 01:28:10;;;;;;;75.63;41.17;;;;;;;-4.38;100.00;102539.41;5075790;28;20062;-50
2021/12/22 01:30:42;;;;;;;74.22;38.28;;;;;;;-4.70;100.00;102472.50;5076237;28;20411;-49
2021/12/22 01:33:07;;;;;;;72.75;38.35;;;;;;;-4.49;100.00;102527.63;5075946;28;20407;-50
2021/12/22 01:35:34;;;;;;;67.57;39.05;;;;;;;-4.43;100.00;102532.19;5057885;28;20119;-54
2021/12/22 01:37:59;;;;;;;69.22;39.63;;;;;;;-4.45;100.00;102537.28;5057671;28;20036;-50
2021/12/22 01:40:26;;;;;;;78.28;39.15;;;;;;;-4.46;100.00;102534.59;5075102;28;20051;-51
2021/12/22 01:42:54;;;;;;;74.28;39.55;;;;;;;-4.55;100.00;102515.31;5075331;28;20479;-52
2021/12/22 01:51:54;;;;;;;84.50;37.97;;;;;;;-4.50;100.00;102525.88;5074962;28;20360;-50
2021/12/22 01:54:19;;;;;;;82.30;40.78;;;;;;;-4.50;100.00;102517.25;5075405;28;20028;-49
2021/12/22 01:56:49;;;;;;;73.53;38.58;;;;;;;-4.52;100.00;102498.31;5075378;28;20035;-48
2021/12/22 01:59:14;;;;;;;77.72;38.40;;;;;;;-4.83;100.00;102447.81;5075185;28;20033;-49
2021/12/22 02:01:40;;;;;;;77.20;39.20;;;;;;;-4.57;100.00;102493.81;5075111;28;20039;-52
2021/12/22 02:04:10;;;;;;;82.43;40.90;;;;;;;-4.53;100.00;102502.56;5075576;28;20492;-49
2021/12/22 02:06:37;;;;;;;75.63;38.85;;;;;;;-4.55;100.00;102512.75;5075275;28;20123;-51
2021/12/22 02:09:03;;;;;;;76.60;40.47;;;;;;;-4.57;100.00;102514.34;5075013;28;20068;-49
2021/12/22 02:11:28;;;;;;;80.35;39.70;;;;;;;-4.59;100.00;102505.69;5074916;28;20071;-49
2021/12/22 02:13:59;;;;;;;78.18;42.67;;;;;;;-5.20;100.00;102431.16;5040400;28;20032;-53
2021/12/22 02:16:28;;;;;;;80.40;38.70;;;;;;;-5.01;100.00;102438.19;5075116;28;20044;-48
2021/12/22 02:18:54;;;;;;;73.45;41.17;;;;;;;-4.59;100.00;102515.97;5057425;28;20040;-51
2021/12/22 02:21:22;;;;;;;82.88;39.50;;;;;;;-4.62;100.00;102509.78;5057210;28;20050;-50
2021/12/22 02:23:47;;;;;;;78.85;39.95;;;;;;;-5.08;100.00;102433.53;5057216;28;20041;-50
2021/12/22 02:26:21;;;;;;;86.30;38.58;;;;;;;-4.72;100.00;102504.91;5075056;28;20036;-53
2021/12/22 02:28:55;;;;;;;80.00;39.97;;;;;;;-4.66;100.00;102518.97;5057974;28;20081;-50
2021/12/22 02:31:21;;;;;;;78.15;41.00;;;;;;;-5.00;100.00;102478.50;5074915;28;20097;-48
2021/12/22 02:33:49;;;;;;;78.25;38.95;;;;;;;-4.67;100.00;102535.19;5057117;28;20036;-51
2021/12/22 02:38:45;;;;;;;79.53;38.50;;;;;;;-4.66;100.00;102544.69;5057221;28;20036;-51
2021/12/22 02:41:14;;;;;;;71.95;37.38;;;;;;;-5.05;100.00;102461.97;5056745;28;20080;-50
2021/12/22 02:43:49;;;;;;;83.03;40.75;;;;;;;-4.68;100.00;102529.97;5056913;28;20486;-49
2021/12/22 02:46:20;;;;;;;80.80;39.85;;;;;;;-4.68;100.00;102553.09;5074796;28;20032;-49
2021/12/22 02:48:46;;;;;;;;;;;;;;;-4.70;100.00;102542.72;5057102;28;20036;-51
2021/12/22 02:51:12;;;;;;;68.50;38.00;;;;;;;-4.71;100.00;102533.28;5074469;28;19917;-52
2021/12/22 02:53:49;;;;;;;81.93;40.25;;;;;;;-4.72;100.00;102533.16;5074454;28;20041;-47
2021/12/22 02:57:07;;;;;;;75.20;36.75;;;;;;;-4.86;100.00;102506.72;5074556;28;20399;-51
2021/12/22 03:04:19;;;;;;;74.13;38.80;;;;;;;-4.92;100.00;102511.50;5058048;28;20593;-50
2021/12/22 03:07:09;;;;;;;;;;;;;;;-4.83;100.00;102527.44;5074912;28;20106;-49
2021/12/22 03:09:37;;;;;;;70.73;36.03;;;;;;;-5.28;100.00;102450.38;5074212;28;19919;-49
2021/12/22 03:12:09;;;;;;;78.53;38.58;;;;;;;-5.30;100.00;102446.84;5056101;28;20295;-51
2021/12/22 03:14:34;;;;;;;82.07;39.50;;;;;;;-5.26;100.00;102451.34;5055989;28;20029;-50
2021/12/22 03:17:00;;;;;;;82.10;40.22;;;;;;;-4.86;100.00;102517.00;5074178;28;20038;-49
2021/12/22 03:19:31;;;;;;;81.68;39.90;;;;;;;-4.88;100.00;102521.16;5073887;28;20068;-50
2021/12/22 03:22:02;;;;;;;73.75;40.13;;;;;;;-4.90;100.00;102520.16;5055658;28;20110;-51
2021/12/22 03:24:29;;;;;;;88.38;44.17;;;;;;;-5.39;100.00;102436.94;5073692;28;20028;-52
2021/12/22 03:26:55;;;;;;;79.18;40.90;;;;;;;-4.92;100.00;102511.50;5073599;28;20078;-52
2021/12/22 03:29:20;;;;;;;78.65;41.55;;;;;;;-4.89;100.00;102516.81;5073386;28;20055;-49
2021/12/22 03:31:47;;;;;;;80.45;39.25;;;;;;;-4.86;100.00;102519.56;5073541;28;20535;-53
2021/12/22 03:34:13;;;;;;;87.43;41.80;;;;;;;-4.88;100.00;102522.84;5055636;28;20075;-51
2021/12/22 03:36:41;;;;;;;83.75;40.60;;;;;;;-4.91;100.00;102500.44;5073021;28;20028;-49
2021/12/22 03:39:06;;;;;;;89.57;40.05;;;;;;;-5.02;100.00;102488.66;5073456;28;20127;-51
2021/12/22 03:41:34;;;;;;;83.03;41.42;;;;;;;-4.95;100.00;102507.88;5055260;28;20119;-51
2021/12/22 03:44:00;;;;;;;76.63;40.60;;;;;;;-4.87;100.00;102507.50;5055877;28;20097;-51
2021/12/22 03:46:25;;;;;;;78.38;40.85;;;;;;;-5.00;100.00;102491.34;5073561;28;20492;-53
2021/12/22 03:48:51;;;;;;;87.68;40.28;;;;;;;-4.91;100.00;102500.44;5073069;28;20395;-51
2021/12/22 03:51:16;;;;;;;79.00;40.95;;;;;;;-4.89;100.00;102509.13;5073204;28;20171;-52
2021/12/22 03:53:41;;;;;;;77.82;39.53;;;;;;;-4.93;100.00;102490.91;5055233;28;20025;-48
2021/12/22 03:56:07;;;;;;;82.13;39.78;;;;;;;-5.56;100.00;102383.78;5073298;28;20040;-55
2021/12/22 03:58:32;;;;;;;76.28;40.15;;;;;;;-5.03;100.00;102475.75;5055707;28;20130;-50
2021/12/22 04:00:58;;;;;;;81.50;40.08;;;;;;;-5.15;100.00;102453.72;5073264;28;20124;-51
2021/12/22 04:03:29;;;;;;;75.50;40.33;;;;;;;-5.03;100.00;102468.06;5073149;28;20055;-52
2021/12/22 04:05:55;;;;;;;79.30;39.90;;;;;;;-5.32;100.00;102412.50;5055902;28;20028;-51
2021/12/22 04:08:21;;;;;;;74.15;39.58;;;;;;;-4.97;100.00;102487.25;5072877;28;20020;-51
2021/12/22 04:10:47;;;;;;;79.60;40.05;;;;;;;-5.02;100.00;102468.13;5072853;28;20044;-53
2021/12/22 04:13:13;;;;;;;78.50;41.83;;;;;;;-4.95;100.00;102485.66;5072923;28;20033;-53
2021/12/22 04:15:39;;;;;;;82.47;40.33;;;;;;;-4.91;100.00;102485.03;5072985;28;20044;-53
2021/12/22 04:18:05;;;;;;;79.30;39.03;;;;;;;-4.91;100.00;102490.19;5072553;28;20411;-50
2021/12/22 04:20:31;;;;;;;83.72;39.45;;;;;;;-5.34;100.00;102398.72;5072853;28;20072;-50
2021/12/22 04:22:58;;;;;;;74.30;40.38;;;;;;;-4.89;100.00;102485.09;5072647;28;20170;-50
2021/12/22 04:25:24;;;;;;;84.82;41.92;;;;;;;-4.97;100.00;102455.56;5072504;28;20463;-51
2021/12/22 04:27:56;;;;;;;85.20;39.83;;;;;;;-4.83;100.00;102470.94;5072762;28;20040;-50
2021/12/22 04:30:22;;;;;;;74.22;39.30;;;;;;;-4.90;100.00;102452.53;5072838;28;20215;-51
2021/12/22 04:32:48;;;;;;;81.68;40.33;;;;;;;-4.75;100.00;102468.78;5072688;28;20395;-49
2021/12/22 04:35:14;;;;;;;82.30;40.28;;;;;;;-4.82;100.00;102446.13;5054762;28;20128;-51
2021/12/22 04:37:39;;;;;;;87.50;40.85;;;;;;;-4.66;100.00;102467.59;5072670;28;20082;-54
2021/12/22 04:40:06;;;;;;;84.07;39.10;;;;;;;-4.78;100.00;102440.34;5072357;28;20533;-51
2021/12/22 04:42:31;;;;;;;88.55;40.25;;;;;;;-4.84;100.00;102437.44;5072676;28;20159;-53
2021/12/22 04:44:58;;;;;;;80.95;38.88;;;;;;;-4.69;100.00;102456.25;5072456;28;20111;-51
2021/12/22 04:53:51;;;;;;;85.35;40.75;;;;;;;-4.82;100.00;102435.88;5052554;28;20560;-50
2021/12/22 04:56:17;;;;;;;88.30;38.38;;;;;;;-4.72;100.00;102451.84;5051760;28;20036;-49
2021/12/22 04:58:42;;;;;;;82.78;39.95;;;;;;;-5.15;100.00;102376.72;5050915;28;20047;-51
2021/12/22 05:01:07;;;;;;;80.20;41.88;;;;;;;-4.73;100.00;102452.63;5051877;28;20116;-50
2021/12/22 05:03:33;;;;;;;81.07;40.63;;;;;;;-4.86;100.00;102427.09;5051897;28;20032;-49
2021/12/22 05:05:58;;;;;;;89.47;40.78;;;;;;;-4.68;100.00;102464.06;5051776;28;20416;-49
2021/12/22 05:08:23;;;;;;;81.75;39.40;;;;;;;-5.02;100.00;102382.53;5051671;28;20091;-50
2021/12/22 05:10:49;;;;;;;88.78;41.45;;;;;;;-5.05;100.00;102374.66;5052127;28;20464;-52
2021/12/22 05:13:14;;;;;;;80.05;38.33;;;;;;;-4.65;100.00;102435.09;5051104;28;20518;-51
2021/12/22 05:15:39;;;;;;;84.38;38.42;;;;;;;-5.08;100.00;102353.94;5052281;28;20041;-55
2021/12/22 05:18:24;;;;;;;80.25;38.58;;;;;;;-4.65;100.00;102435.09;5052032;28;20396;-48
2021/12/22 05:20:50;;;;;;;82.72;38.75;;;;;;;-4.79;100.00;102411.22;5052198;28;20063;-51
2021/12/22 05:23:16;;;;;;;85.65;40.63;;;;;;;-4.66;100.00;102434.19;5051938;28;20037;-49
2021/12/22 05:25:41;;;;;;;89.70;39.90;;;;;;;-4.63;100.00;102446.31;5052136;28;20033;-49
2021/12/22 05:28:07;;;;;;;83.63;39.42;;;;;;;-5.16;100.00;102345.81;5052132;28;20458;-55
2021/12/22 05:30:32;;;;;;;81.15;38.90;;;;;;;-5.06;100.00;102365.19;5051823;28;20400;-52
2021/12/22 05:32:57;;;;;;;84.85;39.83;;;;;;;-5.10;100.00;102364.13;5034044;28;20037;-48
2021/12/22 05:35:23;;;;;;;86.55;39.40;;;;;;;-5.08;100.00;102361.66;5051756;28;20469;-51
2021/12/22 05:37:49;;;;;;;78.38;38.03;;;;;;;-4.69;100.00;102434.03;5052039;28;20175;-52
2021/12/22 05:40:14;;;;;;;82.65;39.00;;;;;;;-4.69;100.00;102435.72;5051952;28;20032;-49
2021/12/22 05:42:42;;;;;;;92.82;38.40;;;;;;;-4.70;100.00;102436.53;5051976;28;20033;-49
2021/12/22 05:45:08;;;;;;;90.40;39.63;;;;;;;-4.89;100.00;102400.34;5051832;28;20029;-51
2021/12/22 05:47:33;;;;;;;78.57;38.40;;;;;;;-4.94;100.00;102392.41;5050607;28;20033;-50
2021/12/22 05:49:59;;;;;;;82.50;39.92;;;;;;;-4.65;100.00;102432.53;5050492;28;20049;-52
2021/12/22 05:52:24;;;;;;;84.18;39.88;;;;;;;-4.63;100.00;102447.22;5052103;28;20044;-50
2021/12/22 05:54:49;;;;;;;87.40;40.38;;;;;;;-4.61;100.00;102429.28;5050449;28;20029;-50
2021/12/22 05:57:15;;;;;;;83.68;39.67;;;;;;;-4.67;100.00;102421.28;5050717;28;20029;-52
2021/12/22 05:59:40;;;;;;;87.85;40.22;;;;;;;-4.96;100.00;102377.72;5052472;28;20044;-49
2021/12/22 06:02:06;;;;;;;84.63;37.80;;;;;;;-4.68;100.00;102434.94;5055566;28;20037;-52
2021/12/22 06:04:31;;;;;;;86.65;37.70;;;;;;;-4.76;100.00;102426.78;5054108;28;20441;-51
2021/12/22 06:06:56;;;;;;;81.57;38.38;;;;;;;-5.22;100.00;102364.31;5055172;28;20025;-51
2021/12/22 06:09:22;;;;;;;89.90;39.92;;;;;;;-4.75;100.00;102431.13;5055644;28;20118;-54
2021/12/22 06:11:47;;;;;;;75.30;36.40;;;;;;;-4.69;100.00;102440.84;5054078;28;20041;-51
2021/12/22 06:14:13;;;;;;;85.60;38.45;;;;;;;-4.69;100.00;102426.31;5054106;28;20033;-54
2021/12/22 06:16:38;;;;;;;85.00;39.65;;;;;;;-4.66;100.00;102430.75;5055252;28;20507;-56
2021/12/22 06:19:08;;;;;;;80.00;39.28;;;;;;;-5.04;100.00;102361.88;5055056;28;20041;-51
2021/12/22 06:21:33;;;;;;;83.27;39.03;;;;;;;-4.69;100.00;102428.00;5055384;28;20472;-51
2021/12/22 06:23:59;;;;;;;85.53;39.42;;;;;;;-5.07;100.00;102361.72;5055149;28;20044;-48
2021/12/22 06:26:24;;;;;;;82.95;39.72;;;;;;;-5.10;100.00;102358.97;5053955;28;20040;-52
2021/12/22 06:28:50;;;;;;;80.20;39.50;;;;;;;-4.66;100.00;102425.59;5054688;28;20025;-53
2021/12/22 06:31:16;;;;;;;92.95;40.33;;;;;;;-4.61;100.00;102431.88;5054601;28;20037;-49
2021/12/22 06:33:42;;;;;;;78.40;39.42;;;;;;;-4.56;100.00;102428.78;5054867;28;20056;-52
2021/12/22 06:36:07;;;;;;;80.22;39.78;;;;;;;-4.52;100.00;102442.63;5054719;28;20029;-50
2021/12/22 06:38:32;;;;;;;82.80;40.58;;;;;;;-4.62;100.00;102418.16;5054741;28;20040;-50
2021/12/22 06:40:59;;;;;;;82.88;36.95;;;;;;;-4.99;100.00;102351.88;5054548;28;20025;-50
2021/12/22 06:43:25;;;;;;;86.93;38.63;;;;;;;-5.16;100.00;102336.44;5054474;28;20060;-53
2021/12/22 06:45:50;;;;;;;85.75;36.85;;;;;;;-5.06;100.00;102354.91;5054758;28;20033;-51
2021/12/22 06:48:15;;;;;;;87.25;37.45;;;;;;;-4.68;100.00;102427.22;5054393;28;20083;-53
2021/12/22 06:50:41;;;;;;;87.13;37.33;;;;;;;-4.78;100.00;102437.78;5068296;28;20048;-53
2021/12/22 06:53:06;;;;;;;75.55;36.53;;;;;;;-4.75;100.00;102438.84;5056470;28;20427;-49
2021/12/22 06:55:32;;;;;;;91.97;40.67;;;;;;;-4.80;100.00;102421.41;5056814;28;20049;-54
2021/12/22 06:57:59;;;;;;;77.18;37.42;;;;;;;-4.81;100.00;102430.78;5074459;28;20036;-51
2021/12/22 07:00:24;;;;;;;73.15;36.97;;;;;;;-4.95;100.00;102421.44;5074186;28;20040;-49
2021/12/22 07:02:50;;;;;;;85.22;39.55;;;;;;;-4.83;100.00;102434.09;5074209;28;20479;-49
2021/12/22 07:05:15;;;;;;;93.00;38.53;;;;;;;-5.24;100.00;102368.50;5074533;28;20036;-53
2021/12/22 07:07:40;;;;;;;88.63;38.83;;;;;;;-4.85;100.00;102413.47;5074346;28;20499;-50
2021/12/22 07:10:08;;;;;;;82.97;38.60;;;;;;;-5.17;100.00;102350.09;5074193;28;20479;-54
2021/12/22 07:12:34;;;;;;;83.65;40.17;;;;;;;-4.76;100.00;102424.22;5073134;28;20029;-49
2021/12/22 07:15:02;;;;;;;86.22;39.50;;;;;;;-4.69;100.00;102416.06;5056373;28;20029;-52
2021/12/22 07:17:27;;;;;;;86.20;39.38;;;;;;;-4.66;100.00;102416.22;5074190;28;20139;-53
2021/12/22 07:19:52;;;;;;;84.35;40.38;;;;;;;-5.04;100.00;102338.78;5074092;28;20528;-49
2021/12/22 07:22:18;;;;;;;81.32;39.42;;;;;;;-4.56;100.00;102410.78;5069376;28;20041;-50
2021/12/22 07:24:43;;;;;;;96.72;41.28;;;;;;;-4.54;100.00;102421.13;5073362;28;20036;-51
2021/12/22 07:27:08;;;;;;;89.75;39.17;;;;;;;-4.88;100.00;102345.63;5073491;28;20125;-52
2021/12/22 07:29:34;;;;;;;90.22;40.78;;;;;;;-4.84;100.00;102352.69;5055590;28;20369;-51
2021/12/22 07:31:59;;;;;;;80.72;38.75;;;;;;;-5.02;100.00;102328.59;5073335;28;20407;-52
2021/12/22 07:34:34;;;;;;;86.40;41.88;;;;;;;-4.47;100.00;102420.66;5055299;28;20086;-51
2021/12/22 07:37:04;;;;;;;87.97;40.88;;;;;;;-4.88;100.00;102331.13;5073221;28;20535;-55
2021/12/22 07:39:30;;;;;;;90.22;40.78;;;;;;;-4.53;100.00;102393.75;5073206;28;20055;-50
2021/12/22 07:41:56;;;;;;;81.80;38.72;;;;;;;-4.46;100.00;102401.84;5073142;28;20480;-55
2021/12/22 07:44:21;;;;;;;91.68;40.58;;;;;;;-4.90;100.00;102321.56;5072972;28;20033;-52
2021/12/22 07:46:47;;;;;;;82.80;40.00;;;;;;;-4.88;100.00;102336.25;5055005;28;20476;-51
2021/12/22 07:49:12;;;;;;;91.28;40.20;;;;;;;-4.93;100.00;102327.41;5054434;28;20028;-52
2021/12/22 07:51:38;;;;;;;85.30;39.17;;;;;;;-4.51;100.00;102398.16;5071007;28;20492;-52
2021/12/22 07:54:04;;;;;;;85.80;39.72;;;;;;;-4.87;100.00;102342.25;5072908;28;20033;-55
2021/12/22 07:56:29;;;;;;;87.05;40.40;;;;;;;-4.47;100.00;102417.22;5037956;28;20037;-50
2021/12/22 07:58:54;;;;;;;78.05;39.63;;;;;;;-4.47;100.00;102412.97;5073024;28;20036;-53
2021/12/22 08:01:21;;;;;;;81.55;40.70;;;;;;;-4.50;100.00;102410.22;5070170;28;20059;-54
2021/12/22 08:03:46;;;;;;;78.22;37.83;;;;;;;-4.46;100.00;102419.84;5051940;28;20074;-54
2021/12/22 08:06:12;;;;;;;86.05;40.03;;;;;;;-4.71;100.00;102379.13;5052812;28;20060;-50
2021/12/22 08:08:38;;;;;;;79.45;39.97;;;;;;;-4.40;100.00;102421.84;5070907;28;20487;-52
2021/12/22 08:11:04;;;;;;;83.03;39.35;;;;;;;-4.84;100.00;102345.88;5072457;28;20058;-51
2021/12/22 08:13:29;;;;;;;81.07;40.10;;;;;;;-4.39;100.00;102432.22;5072598;28;20075;-55
2021/12/22 08:15:54;;;;;;;89.85;42.20;;;;;;;-4.34;100.00;102417.94;5072903;28;20072;-51
2021/12/22 08:18:20;;;;;;;83.97;40.47;;;;;;;-4.34;100.00;102415.34;5055232;28;20044;-50
2021/12/22 08:20:46;;;;;;;79.00;40.28;;;;;;;-4.31;100.00;102436.06;5072540;28;20501;-52
2021/12/22 08:23:11;;;;;;;90.68;42.65;;;;;;;-4.67;100.00;102350.22;5072495;28;20040;-53
2021/12/22 08:25:38;;;;;;;81.97;40.70;;;;;;;-4.38;100.00;102395.44;5071028;28;20541;-52
2021/12/22 08:28:04;;;;;;;77.80;40.30;;;;;;;-4.35;100.00;102390.44;5070164;28;20260;-51
2021/12/22 08:30:29;;;;;;;79.80;39.67;;;;;;;-4.64;100.00;102344.38;5071244;28;20498;-51
2021/12/22 08:32:58;;;;;;;84.78;41.47;;;;;;;-4.60;100.00;102334.31;5071581;28;20039;-51
2021/12/22 08:35:26;;;;;;;79.13;39.90;;;;;;;-4.21;100.00;102399.78;5071300;28;20067;-55
2021/12/22 08:40:35;;;;;;;82.20;42.22;;;;;;;-4.00;100.00;102411.16;5071786;28;20161;-53
2021/12/22 08:43:00;;;;;;;87.03;42.75;;;;;;;-3.93;100.00;102402.06;5071389;28;20516;-52
2021/12/22 08:45:26;;;;;;;87.20;42.40;;;;;;;-3.85;100.00;102410.19;5071099;28;20460;-52
2021/12/22 08:47:51;;;;;;;91.30;43.40;;;;;;;-3.78;100.00;102401.94;5071061;28;20033;-53
2021/12/22 08:50:18;;;;;;;81.88;42.35;;;;;;;-3.74;100.00;102385.88;5053254;28;20115;-52
2021/12/22 08:52:43;;;;;;;93.07;41.95;;;;;;;-3.81;100.00;102369.25;5071729;28;20040;-52
2021/12/22 08:55:09;;;;;;;89.43;42.38;;;;;;;-3.94;100.00;102329.97;5071031;28;20028;-54
2021/12/22 08:57:34;;;;;;;87.10;43.33;;;;;;;-3.45;100.00;102408.78;5053984;28;20309;-51
2021/12/22 09:00:03;;;;;;;85.88;42.40;;;;;;;-4.14;100.00;102263.00;5054299;28;20437;-53
2021/12/22 09:02:28;;;;;;;88.10;41.25;;;;;;;-3.25;100.00;102402.00;5070560;28;20036;-51
2021/12/22 09:04:54;;;;;;;87.50;43.72;;;;;;;-3.60;100.00;102328.25;5053145;28;20109;-53
2021/12/22 09:07:19;;;;;;;75.78;42.08;;;;;;;-3.53;100.00;102325.13;5071564;28;20071;-54
2021/12/22 09:09:44;;;;;;;80.60;43.78;;;;;;;-3.04;100.00;102401.34;5071410;28;20442;-52
2021/12/22 09:12:10;;;;;;;80.40;44.10;;;;;;;-2.95;100.00;102409.50;5053348;28;20075;-51
2021/12/22 09:14:35;;;;;;;85.72;45.10;;;;;;;-3.00;100.00;102384.31;5071258;28;20083;-51
2021/12/22 09:17:01;;;;;;;76.45;41.78;;;;;;;-2.77;100.00;102413.75;5071248;28;20444;-51
2021/12/22 09:19:27;;;;;;;76.28;42.58;;;;;;;-2.71;100.00;102408.84;5054086;28;20044;-53
2021/12/22 09:21:53;;;;;;;77.05;43.35;;;;;;;-2.68;100.00;102404.72;5054052;28;20124;-49
2021/12/22 09:24:18;;;;;;;72.63;43.15;;;;;;;-2.58;100.00;102413.78;5053954;28;20028;-51
2021/12/22 09:26:44;;;;;;;74.70;43.03;;;;;;;-2.96;100.00;102327.88;5054061;28;20031;-52
2021/12/22 09:29:10;;;;;;;77.80;43.55;;;;;;;-2.58;100.00;102394.03;5054112;28;20021;-51
2021/12/22 09:31:35;;;;;;;75.60;43.65;;;;;;;-2.96;100.00;102329.56;5071984;28;20051;-54
2021/12/22 09:34:01;;;;;;;73.00;40.25;;;;;;;-2.89;100.00;102342.78;5060420;28;20545;-53
2021/12/22 09:36:26;;;;;;;69.32;41.50;;;;;;;-2.66;100.00;102376.47;5070378;28;20218;-50
2021/12/22 09:38:52;;;;;;;70.97;42.70;;;;;;;-2.56;100.00;102394.97;5037655;28;20079;-51
2021/12/22 09:41:17;;;;;;;73.55;41.58;;;;;;;-2.66;100.00;102376.47;5039439;28;20140;-50
2021/12/22 09:43:43;;;;;;;76.13;40.35;;;;;;;-2.91;100.00;102328.97;5055051;28;20039;-51
2021/12/22 09:46:12;;;;;;;68.47;39.78;;;;;;;-2.44;100.00;102403.28;5074174;28;20040;-51
2021/12/22 09:53:43;;;;;;;69.60;43.03;;;;;;;-2.20;100.00;102392.28;5057455;28;20119;-50
2021/12/22 09:56:14;;;;;;;67.20;39.85;;;;;;;-2.11;100.00;102403.88;5075125;28;20303;-51
2021/12/22 09:58:41;;;;;;;73.10;43.28;;;;;;;-2.44;100.00;102322.47;5057785;28;20089;-49
2021/12/22 10:01:06;;;;;;;76.15;42.08;;;;;;;-2.32;100.00;102333.31;5075211;28;20039;-49
2021/12/22 10:03:32;;;;;;;66.65;38.58;;;;;;;-2.15;100.00;102352.97;5057280;28;20037;-49
2021/12/22 10:05:57;;;;;;;71.75;41.40;;;;;;;-1.89;100.00;102411.72;5057350;28;20044;-50
2021/12/22 10:08:25;;;;;;;66.95;40.67;;;;;;;-1.89;100.00;102378.19;5074892;28;20056;-50
2021/12/22 10:11:09;;;;;;;63.80;40.30;;;;;;;-2.14;100.00;102317.75;5075196;28;20415;-50
2021/12/22 10:13:39;;;;;;;77.30;43.13;;;;;;;-1.72;100.00;102378.88;5075017;28;20032;-50
2021/12/22 10:16:20;;;;;;;73.85;43.55;;;;;;;-1.63;100.00;102378.41;5057135;28;20056;-50
2021/12/22 10:18:46;;;;;;;68.88;40.25;;;;;;;-1.53;100.00;102381.41;5057010;28;20028;-50
2021/12/22 10:21:17;;;;;;;62.13;39.65;;;;;;;-1.47;100.00;102384.25;5057032;28;20120;-50
2021/12/22 10:23:44;;;;;;;;;;;;;;;-1.38;100.00;102382.03;5075453;28;20510;-51
2021/12/22 10:26:12;;;;;;;62.70;37.60;;;;;;;-1.31;100.00;102393.47;5074910;28;19912;-50
2021/12/22 10:28:54;;;;;;;60.97;40.92;;;;;;;-1.58;100.00;102314.91;5056986;28;20024;-53
2021/12/22 10:31:25;;;;;;;63.92;39.40;;;;;;;-1.22;100.00;102370.59;5074378;28;20501;-52
2021/12/22 10:33:51;;;;;;;63.10;37.88;;;;;;;-1.18;100.00;102382.84;5074809;28;20041;-50
2021/12/22 10:36:21;;;;;;;65.78;40.92;;;;;;;-1.11;100.00;102369.34;5074752;28;20037;-52
2021/12/22 10:38:52;;;;;;;65.13;39.42;;;;;;;-1.38;100.00;102301.97;5056364;28;20408;-52
2021/12/22 10:41:17;;;;;;;;;;;;;;;-0.89;100.00;102371.94;5057021;28;20028;-51
2021/12/22 10:43:49;;;;;;;66.93;39.35;;;;;;;-0.83;100.00;102384.19;5056509;28;19935;-49
2021/12/22 10:46:27;;;;;;;65.50;38.95;;;;;;;-0.78;100.00;102373.22;5073287;28;20498;-47
2021/12/22 10:49:25;;;;;;;71.22;40.50;;;;;;;-0.71;100.00;102371.75;5056615;28;20032;-50
2021/12/22 10:51:53;;;;;;;63.70;40.15;;;;;;;-0.73;100.00;102356.16;4996165;28;20040;-49
2021/12/22 10:54:19;;;;;;;65.63;40.55;;;;;;;-0.61;100.00;102371.25;5056049;28;20032;-49
2021/12/22 10:56:46;;;;;;;69.28;40.67;;;;;;;-0.72;100.00;102336.34;5073916;28;20033;-55
2021/12/22 10:59:16;;;;;;;63.20;40.10;;;;;;;-0.52;100.00;102355.19;5055196;28;20029;-50
2021/12/22 11:01:42;;;;;;;63.92;40.13;;;;;;;-0.77;100.00;102302.59;5074132;28;20047;-48
2021/12/22 11:04:18;;;;;;;60.10;39.40;;;;;;;-0.45;100.00;102368.41;5074080;28;20115;-50
2021/12/22 11:06:44;;;;;;;61.80;39.45;;;;;;;-0.41;100.00;102352.19;5073689;28;20525;-50
2021/12/22 11:09:14;;;;;;;64.68;40.83;;;;;;;-0.35;100.00;102344.63;5073982;28;20057;-50
2021/12/22 11:11:46;;;;;;;69.63;41.97;;;;;;;-0.59;100.00;102276.53;5074084;28;20033;-53
2021/12/22 11:14:22;;;;;;;60.20;39.00;;;;;;;-0.32;100.00;102310.25;5073709;28;20033;-48
2021/12/22 11:16:53;;;;;;;66.47;41.38;;;;;;;-0.14;100.00;102336.72;5073646;28;20538;-49
2021/12/22 11:19:19;;;;;;;;;;;;;;;-0.09;100.00;102330.03;5074167;28;20618;-50
2021/12/22 11:21:57;;;;;;;57.75;38.67;;;;;;;-0.36;100.00;102262.69;5072627;28;20069;-48
2021/12/22 11:24:23;;;;;;;55.03;39.25;;;;;;;0.06;100.00;102316.72;5073669;28;20238;-54
2021/12/22 11:26:49;;;;;;;58.92;38.70;;;;;;;0.04;100.00;102302.84;5073458;28;20111;-52
2021/12/22 11:29:14;;;;;;;57.33;38.47;;;;;;;-0.35;100.00;102224.75;5073489;28;20033;-53
2021/12/22 11:31:40;;;;;;;57.72;40.15;;;;;;;0.05;100.00;102295.13;5055416;28;20036;-53
2021/12/22 11:34:06;;;;;;;56.83;38.67;;;;;;;-0.14;100.00;102243.56;5055616;28;20032;-50